createdAt,value
2023-05-10T00:01:03.756Z,64.50
2023-05-10T00:03:30.984Z,64.40
2023-05-10T00:05:58.185Z,64.40
2023-05-10T00:08:25.376Z,64.60
2023-05-10T00:10:52.925Z,65.50
2023-05-10T00:13:20.357Z,65.00
2023-05-10T00:15:47.411Z,65.00
2023-05-10T00:18:14.603Z,65.10
2023-05-10T00:20:41.954Z,65.10
2023-05-10T00:23:09.196Z,65.00
2023-05-10T00:25:36.351Z,65.20
2023-05-10T00:28:03.405Z,65.20
2023-05-10T00:30:31.911Z,65.20
2023-05-10T00:32:59.740Z,65.20
2023-05-10T00:35:27.199Z,65.40
2023-05-10T00:37:54.492Z,65.60
2023-05-10T00:40:21.986Z,66.20
2023-05-10T00:42:49.268Z,66.30
2023-05-10T00:45:17.700Z,66.50
2023-05-10T00:47:44.793Z,66.50
2023-05-10T00:50:11.892Z,66.60
2023-05-10T00:52:39.209Z,66.60
2023-05-10T00:55:07.324Z,66.70
2023-05-10T00:57:34.452Z,66.90
2023-05-10T01:00:01.452Z,66.90
2023-05-10T01:02:28.604Z,66.90
2023-05-10T01:04:56.346Z,66.90
2023-05-10T01:07:24.502Z,67.10
2023-05-10T01:09:51.549Z,67.20
2023-05-10T01:12:18.652Z,67.30
2023-05-10T01:14:45.744Z,67.50
2023-05-10T01:17:12.786Z,67.60
2023-05-10T01:19:39.851Z,67.50
2023-05-10T01:22:22.916Z,67.30
2023-05-10T01:24:58.842Z,67.20
2023-05-10T01:27:56.392Z,67.10
2023-05-10T01:30:35.442Z,67.10
2023-05-10T01:33:27.085Z,67.10
2023-05-10T01:36:10.095Z,67.30
2023-05-10T01:38:53.188Z,67.40
2023-05-10T01:41:27.549Z,67.50
2023-05-10T01:43:58.990Z,67.60
2023-05-10T01:46:39.992Z,67.60
2023-05-10T01:49:25.670Z,67.50
2023-05-10T01:51:55.890Z,67.70
2023-05-10T01:54:23.741Z,67.70
2023-05-10T01:56:54.201Z,67.70
2023-05-10T01:59:21.161Z,67.70
2023-05-10T02:01:48.275Z,67.80
2023-05-10T02:04:17.002Z,67.90
2023-05-10T02:06:44.673Z,68.10
2023-05-10T02:09:15.341Z,68.30
2023-05-10T02:11:42.958Z,68.40
2023-05-10T02:14:10.779Z,68.60
2023-05-10T02:16:38.179Z,68.70
2023-05-10T02:19:05.384Z,68.80
2023-05-10T02:21:32.487Z,69.00
2023-05-10T02:24:01.655Z,69.10
2023-05-10T02:26:28.812Z,69.00
2023-05-10T02:28:56.101Z,69.50
2023-05-10T02:31:23.372Z,68.70
2023-05-10T02:33:50.470Z,68.50
2023-05-10T02:36:17.566Z,68.40
2023-05-10T02:38:45.656Z,68.20
2023-05-10T02:41:12.631Z,68.10
2023-05-10T02:43:39.606Z,67.60
2023-05-10T02:46:06.900Z,67.80
2023-05-10T02:48:34.058Z,68.10
2023-05-10T02:51:04.182Z,68.20
2023-05-10T02:53:37.019Z,67.90
2023-05-10T02:56:09.287Z,67.90
2023-05-10T02:58:36.724Z,68.00
2023-05-10T03:01:04.138Z,68.00
2023-05-10T03:03:31.188Z,68.20
2023-05-10T03:05:59.633Z,68.40
2023-05-10T03:08:26.738Z,68.60
2023-05-10T03:11:15.341Z,68.60
2023-05-10T03:14:03.327Z,68.90
2023-05-10T03:16:35.727Z,68.90
2023-05-10T03:19:23.695Z,68.90
2023-05-10T03:21:52.520Z,69.20
2023-05-10T03:24:21.620Z,69.30
2023-05-10T03:26:48.668Z,69.30
2023-05-10T03:29:15.756Z,69.40
2023-05-10T03:31:42.992Z,69.60
2023-05-10T03:34:10.201Z,69.60
2023-05-10T03:36:37.502Z,69.30
2023-05-10T03:39:04.736Z,69.10
2023-05-10T03:41:31.841Z,68.90
2023-05-10T03:43:58.887Z,68.80
2023-05-10T03:46:26.153Z,68.70
2023-05-10T03:48:53.240Z,68.60
2023-05-10T03:51:20.531Z,68.40
2023-05-10T03:53:51.345Z,68.40
2023-05-10T03:56:18.412Z,68.30
2023-05-10T03:58:45.869Z,68.40
2023-05-10T04:01:13.081Z,68.20
2023-05-10T04:03:40.325Z,68.20
2023-05-10T04:06:09.371Z,68.00
2023-05-10T04:08:36.728Z,68.10
2023-05-10T04:11:10.673Z,68.10
2023-05-10T04:13:38.357Z,68.10
2023-05-10T04:16:05.999Z,68.30
2023-05-10T04:18:33.456Z,68.40
2023-05-10T04:21:00.553Z,68.40
2023-05-10T04:23:28.787Z,69.20
2023-05-10T04:26:03.013Z,68.60
2023-05-10T04:28:30.083Z,68.50
2023-05-10T04:31:09.964Z,68.00
2023-05-10T04:33:37.381Z,67.70
2023-05-10T04:36:04.966Z,67.30
2023-05-10T04:38:32.539Z,67.30
2023-05-10T04:41:08.775Z,67.10
2023-05-10T04:43:36.041Z,66.90
2023-05-10T04:46:03.350Z,66.60
2023-05-10T04:48:30.711Z,66.70
2023-05-10T04:50:58.297Z,67.10
2023-05-10T04:53:25.354Z,67.30
2023-05-10T04:55:52.679Z,66.60
2023-05-10T04:58:19.773Z,66.70
2023-05-10T05:00:46.946Z,66.20
2023-05-10T05:03:16.204Z,65.80
2023-05-10T05:05:43.474Z,65.70
2023-05-10T05:08:10.697Z,65.60
2023-05-10T05:10:37.864Z,65.50
2023-05-10T05:13:06.503Z,65.50
2023-05-10T05:15:33.834Z,65.80
2023-05-10T05:18:01.304Z,65.70
2023-05-10T05:20:28.610Z,65.50
2023-05-10T05:22:55.915Z,65.30
2023-05-10T05:25:23.192Z,65.30
2023-05-10T05:27:53.121Z,65.30
2023-05-10T05:30:21.101Z,64.70
2023-05-10T05:32:51.376Z,64.20
2023-05-10T05:35:23.307Z,64.20
2023-05-10T05:37:50.359Z,64.50
2023-05-10T05:40:17.499Z,64.50
2023-05-10T05:42:44.541Z,64.30
2023-05-10T05:45:14.449Z,63.70
2023-05-10T05:47:42.109Z,63.60
2023-05-10T05:50:09.867Z,63.10
2023-05-10T05:52:37.303Z,62.80
2023-05-10T05:55:07.675Z,62.60
2023-05-10T05:57:35.175Z,62.50
2023-05-10T06:00:03.608Z,62.40
2023-05-10T06:02:30.895Z,61.80
2023-05-10T06:04:58.150Z,61.60
2023-05-10T06:07:25.344Z,61.50
2023-05-10T06:09:52.498Z,61.40
2023-05-10T06:12:19.667Z,61.20
2023-05-10T06:14:46.852Z,60.30
2023-05-10T06:17:14.022Z,60.00
2023-05-10T06:19:42.844Z,60.20
2023-05-10T06:22:09.980Z,60.40
2023-05-10T06:24:37.354Z,60.40
2023-05-10T06:27:05.347Z,60.60
2023-05-10T06:29:32.868Z,60.50
2023-05-10T06:32:00.006Z,60.30
2023-05-10T06:34:27.113Z,60.20
2023-05-10T06:36:54.238Z,59.70
2023-05-10T06:39:21.635Z,59.30
2023-05-10T06:41:48.954Z,58.90
2023-05-10T06:44:17.338Z,58.80
2023-05-10T06:46:44.586Z,58.70
2023-05-10T06:49:14.649Z,58.90
2023-05-10T06:51:41.839Z,58.70
2023-05-10T06:54:08.998Z,58.30
2023-05-10T06:56:36.504Z,57.10
2023-05-10T06:59:04.187Z,56.60
2023-05-10T07:01:31.319Z,56.50
2023-05-10T07:03:58.667Z,56.40
2023-05-10T07:06:33.276Z,55.50
2023-05-10T07:09:02.096Z,55.20
2023-05-10T07:11:29.425Z,55.40
2023-05-10T07:13:57.039Z,55.00
2023-05-10T07:16:24.486Z,54.10
2023-05-10T07:18:51.894Z,52.70
2023-05-10T07:21:19.088Z,51.80
2023-05-10T07:23:46.384Z,51.00
2023-05-10T07:26:19.456Z,51.40
2023-05-10T07:28:46.869Z,50.90
2023-05-10T07:31:14.021Z,50.70
2023-05-10T07:33:41.840Z,49.60
2023-05-10T07:36:09.100Z,48.00
2023-05-10T07:38:37.503Z,47.70
2023-05-10T07:41:05.709Z,47.10
2023-05-10T07:43:33.184Z,46.50
2023-05-10T07:46:00.963Z,46.50
2023-05-10T07:48:30.396Z,45.90
2023-05-10T07:50:57.748Z,45.80
2023-05-10T07:53:26.632Z,45.90
2023-05-10T07:55:59.251Z,45.20
2023-05-10T07:58:27.058Z,45.30
2023-05-10T08:00:54.349Z,45.80
2023-05-10T08:03:21.894Z,45.70
2023-05-10T08:05:49.453Z,45.80
2023-05-10T08:08:16.735Z,45.50
2023-05-10T08:10:43.915Z,44.90
2023-05-10T08:13:13.518Z,44.50
2023-05-10T08:15:42.433Z,43.20
2023-05-10T08:18:09.931Z,43.60
2023-05-10T08:20:37.164Z,44.10
2023-05-10T08:23:04.344Z,43.80
2023-05-10T08:25:32.482Z,43.30
2023-05-10T08:27:59.710Z,42.20
2023-05-10T08:30:26.837Z,41.80
2023-05-10T08:32:54.022Z,42.70
2023-05-10T08:35:21.294Z,41.20
2023-05-10T08:37:48.532Z,39.80
2023-05-10T08:40:16.054Z,39.80
2023-05-10T08:42:46.791Z,39.80
2023-05-10T08:45:14.032Z,40.10
2023-05-10T08:47:41.493Z,39.60
2023-05-10T08:50:08.869Z,39.70
2023-05-10T08:52:35.975Z,39.70
2023-05-10T08:55:03.531Z,39.50
2023-05-10T08:57:30.772Z,39.60
2023-05-10T08:59:57.878Z,39.50
2023-05-10T09:02:25.058Z,40.20
2023-05-10T09:04:52.799Z,39.70
2023-05-10T09:07:20.972Z,40.30
2023-05-10T09:09:48.372Z,40.90
2023-05-10T09:12:16.896Z,41.20
2023-05-10T09:14:44.972Z,41.10
2023-05-10T09:17:11.996Z,41.50
2023-05-10T09:19:39.584Z,41.80
2023-05-10T09:22:06.686Z,42.50
2023-05-10T09:24:33.813Z,42.80
2023-05-10T09:27:01.185Z,42.70
2023-05-10T09:29:29.468Z,42.00
2023-05-10T09:31:56.708Z,41.40
2023-05-10T09:34:33.217Z,41.10
2023-05-10T09:37:02.515Z,41.20
2023-05-10T09:39:33.410Z,41.60
2023-05-10T09:42:08.318Z,41.90
2023-05-10T09:44:35.623Z,41.70
2023-05-10T09:47:03.345Z,41.00
2023-05-10T09:49:30.864Z,40.90
2023-05-10T09:52:05.042Z,40.30
2023-05-10T09:54:33.027Z,40.40
2023-05-10T09:57:00.176Z,40.30
2023-05-10T09:59:28.440Z,40.50
2023-05-10T10:01:59.540Z,40.40
2023-05-10T10:04:27.235Z,40.90
2023-05-10T10:07:02.050Z,40.70
2023-05-10T10:09:29.536Z,40.30
2023-05-10T10:12:00.711Z,39.70
2023-05-10T10:14:27.888Z,39.60
2023-05-10T10:17:05.829Z,39.70
2023-05-10T10:19:36.727Z,38.90
2023-05-10T10:22:04.298Z,38.40
2023-05-10T10:24:31.439Z,38.70
2023-05-10T10:27:03.449Z,38.20
2023-05-10T10:30:11.731Z,38.00
2023-05-10T10:32:59.633Z,38.70
2023-05-10T10:35:26.860Z,39.30
2023-05-10T10:37:55.386Z,40.00
2023-05-10T10:40:34.630Z,40.40
2023-05-10T10:43:27.006Z,40.70
2023-05-10T10:46:18.768Z,40.40
2023-05-10T10:48:49.653Z,40.20
2023-05-10T10:51:16.873Z,40.70
2023-05-10T10:53:44.293Z,39.80
2023-05-10T10:56:12.911Z,40.00
2023-05-10T10:58:40.756Z,40.20
2023-05-10T11:01:16.304Z,39.50
2023-05-10T11:04:16.564Z,38.90
2023-05-10T11:06:43.859Z,39.00
2023-05-10T11:09:12.676Z,39.00
2023-05-10T11:11:59.211Z,38.40
2023-05-10T11:14:26.368Z,39.10
2023-05-10T11:16:53.680Z,39.30
2023-05-10T11:19:21.104Z,40.20
2023-05-10T11:22:07.027Z,40.10
2023-05-10T11:24:34.970Z,40.30
2023-05-10T11:27:02.667Z,40.90
2023-05-10T11:29:29.949Z,41.60
2023-05-10T11:31:59.357Z,42.00
2023-05-10T11:34:27.918Z,42.50
2023-05-10T11:36:55.969Z,42.50
2023-05-10T11:39:26.719Z,42.90
2023-05-10T11:41:53.837Z,43.00
2023-05-10T11:44:20.850Z,43.00
2023-05-10T11:46:48.067Z,43.80
2023-05-10T11:49:16.335Z,43.70
2023-05-10T11:51:44.803Z,43.80
2023-05-10T11:54:12.324Z,43.80
2023-05-10T11:56:42.211Z,43.80
2023-05-10T11:59:10.693Z,43.10
2023-05-10T12:01:37.923Z,43.20
2023-05-10T12:04:05.642Z,43.00
2023-05-10T12:06:36.280Z,42.70
2023-05-10T12:09:06.599Z,41.90
2023-05-10T12:11:33.939Z,41.60
2023-05-10T12:14:00.971Z,41.20
2023-05-10T12:16:30.371Z,41.30
2023-05-10T12:18:59.151Z,40.10
2023-05-10T12:21:26.612Z,40.20
2023-05-10T12:23:55.737Z,40.40
2023-05-10T12:26:24.014Z,41.00
2023-05-10T12:31:55.622Z,41.00
2023-05-10T12:34:26.073Z,41.50
2023-05-10T12:36:53.437Z,41.20
2023-05-10T12:39:21.563Z,41.80
2023-05-10T12:41:49.139Z,41.90
2023-05-10T12:44:16.464Z,41.60
2023-05-10T12:46:43.716Z,42.00
2023-05-10T12:49:11.690Z,41.90
2023-05-10T12:51:38.972Z,41.60
2023-05-10T12:54:06.044Z,41.80
2023-05-10T12:56:33.128Z,42.10
2023-05-10T12:59:06.518Z,42.20
2023-05-10T13:01:33.683Z,42.20
2023-05-10T13:04:01.445Z,42.50
2023-05-10T13:06:28.378Z,42.50
2023-05-10T13:08:55.612Z,42.40
2023-05-10T13:11:22.780Z,42.50
2023-05-10T13:13:49.820Z,42.30
2023-05-10T13:16:17.046Z,41.30
2023-05-10T13:18:44.098Z,41.90
2023-05-10T13:21:11.166Z,42.20
2023-05-10T13:23:38.359Z,42.90
2023-05-10T13:26:05.616Z,42.70
2023-05-10T13:28:32.780Z,42.30
2023-05-10T13:31:01.170Z,42.40
2023-05-10T13:33:28.348Z,42.00
2023-05-10T13:35:55.856Z,41.90
2023-05-10T13:38:23.090Z,42.50
2023-05-10T13:40:53.841Z,42.70
2023-05-10T13:43:21.137Z,43.30
2023-05-10T13:45:48.466Z,42.60
2023-05-10T13:48:15.857Z,42.40
2023-05-10T13:50:42.897Z,42.40
2023-05-10T13:53:10.037Z,42.50
2023-05-10T13:55:37.342Z,43.00
2023-05-10T13:58:04.399Z,42.70
2023-05-10T14:00:31.661Z,42.90
2023-05-10T14:02:58.810Z,43.00
2023-05-10T14:05:26.632Z,42.90
2023-05-10T14:07:54.784Z,43.20
2023-05-10T14:10:22.051Z,43.60
2023-05-10T14:12:50.144Z,43.90
2023-05-10T14:15:17.472Z,44.10
2023-05-10T14:17:44.707Z,44.60
2023-05-10T14:20:12.352Z,44.70
2023-05-10T14:22:39.609Z,44.90
2023-05-10T14:25:08.234Z,44.90
2023-05-10T14:27:35.361Z,44.90
2023-05-10T14:30:02.356Z,45.00
2023-05-10T14:32:29.653Z,44.70
2023-05-10T14:34:56.998Z,44.90
2023-05-10T14:37:24.101Z,44.80
2023-05-10T14:39:51.072Z,44.80
2023-05-10T14:42:18.182Z,44.80
2023-05-10T14:44:45.129Z,45.10
2023-05-10T14:47:12.463Z,45.00
2023-05-10T14:49:39.481Z,45.10
2023-05-10T14:52:06.607Z,45.10
2023-05-10T14:54:34.659Z,45.10
2023-05-10T14:57:01.773Z,45.50
2023-05-10T14:59:28.883Z,45.60
2023-05-10T15:01:56.755Z,45.70
2023-05-10T15:04:25.440Z,45.90
2023-05-10T15:06:54.690Z,45.60
2023-05-10T15:09:22.038Z,45.60
2023-05-10T15:11:49.118Z,45.90
2023-05-10T15:14:16.231Z,45.60
2023-05-10T15:16:43.175Z,45.90
2023-05-10T15:19:10.446Z,46.20
2023-05-10T15:21:40.085Z,46.20
2023-05-10T15:24:07.296Z,46.30
2023-05-10T15:26:34.484Z,46.30
2023-05-10T15:29:01.683Z,46.40
2023-05-10T15:31:28.999Z,46.60
2023-05-10T15:33:58.596Z,47.10
2023-05-10T15:36:27.743Z,47.30
2023-05-10T15:38:55.864Z,47.30
2023-05-10T15:41:23.129Z,47.60
2023-05-10T15:43:50.316Z,47.90
2023-05-10T15:46:17.754Z,47.70
2023-05-10T15:48:44.946Z,47.80
2023-05-10T15:51:12.026Z,47.90
2023-05-10T15:53:49.472Z,48.00
2023-05-10T15:56:25.236Z,47.60
2023-05-10T15:58:52.403Z,47.70
2023-05-10T16:01:19.936Z,47.80
2023-05-10T16:03:50.242Z,47.80
2023-05-10T16:06:17.632Z,47.90
2023-05-10T16:08:50.358Z,47.80
2023-05-10T16:11:18.075Z,48.10
2023-05-10T16:13:45.070Z,48.10
2023-05-10T16:16:12.331Z,48.20
2023-05-10T16:18:39.834Z,48.30
2023-05-10T16:21:07.851Z,48.40
2023-05-10T16:23:38.332Z,48.60
2023-05-10T16:26:05.285Z,48.70
2023-05-10T16:28:32.521Z,49.00
2023-05-10T16:30:59.697Z,49.20
2023-05-10T16:33:27.096Z,49.40
2023-05-10T16:35:54.472Z,49.40
2023-05-10T16:38:22.024Z,49.70
2023-05-10T16:40:49.320Z,49.90
2023-05-10T16:43:16.553Z,50.10
2023-05-10T16:45:43.984Z,50.30
2023-05-10T16:48:11.159Z,54.20
2023-05-10T16:50:38.298Z,55.70
2023-05-10T16:53:05.464Z,57.00
2023-05-10T16:55:32.520Z,57.40
2023-05-10T16:58:01.071Z,57.90
2023-05-10T17:00:28.712Z,58.20
2023-05-10T17:02:56.005Z,58.50
2023-05-10T17:05:23.513Z,58.80
2023-05-10T17:07:50.713Z,59.20
2023-05-10T17:10:17.922Z,59.60
2023-05-10T17:12:45.732Z,60.70
2023-05-10T17:15:13.217Z,62.20
2023-05-10T17:17:40.371Z,62.80
2023-05-10T17:20:08.639Z,64.00
2023-05-10T17:22:35.679Z,65.40
2023-05-10T17:25:03.004Z,65.80
2023-05-10T17:27:30.392Z,66.80
2023-05-10T17:29:57.989Z,68.70
2023-05-10T17:32:25.731Z,70.00
2023-05-10T17:34:53.141Z,71.20
2023-05-10T17:37:20.528Z,71.40
2023-05-10T17:39:47.785Z,71.80
2023-05-10T17:42:17.824Z,71.40
2023-05-10T17:44:45.091Z,70.80
2023-05-10T17:47:12.682Z,71.50
2023-05-10T17:49:40.146Z,72.50
2023-05-10T17:52:07.628Z,73.80
2023-05-10T17:54:34.943Z,74.80
2023-05-10T17:57:03.944Z,74.70
2023-05-10T17:59:31.312Z,74.60
2023-05-10T18:01:58.537Z,75.00
2023-05-10T18:04:26.917Z,75.20
2023-05-10T18:07:01.843Z,75.00
2023-05-10T18:09:29.347Z,75.40
2023-05-10T18:11:56.433Z,75.60
2023-05-10T18:14:36.541Z,75.20
2023-05-10T18:17:08.310Z,75.80
2023-05-10T18:19:35.528Z,75.70
2023-05-10T18:22:02.886Z,75.80
2023-05-10T18:24:39.029Z,75.80
2023-05-10T18:27:13.763Z,75.90
2023-05-10T18:29:40.919Z,75.70
2023-05-10T18:32:08.087Z,75.90
2023-05-10T18:34:35.371Z,75.90
2023-05-10T18:37:07.538Z,76.20
2023-05-10T18:39:35.287Z,77.00
2023-05-10T18:42:02.348Z,77.10
2023-05-10T18:44:29.625Z,76.80
2023-05-10T18:46:57.070Z,76.80
2023-05-10T18:49:24.217Z,77.30
2023-05-10T18:51:51.707Z,77.90
2023-05-10T18:54:19.146Z,77.80
2023-05-10T18:56:46.451Z,77.60
2023-05-10T18:59:15.797Z,77.30
2023-05-10T19:01:42.951Z,77.40
2023-05-10T19:04:10.287Z,77.50
2023-05-10T19:06:37.477Z,77.30
2023-05-10T19:09:04.714Z,77.20
2023-05-10T19:11:34.197Z,77.10
2023-05-10T19:14:01.955Z,77.10
2023-05-10T19:16:30.856Z,76.90
2023-05-10T19:19:00.524Z,76.70
2023-05-10T19:21:28.415Z,76.70
2023-05-10T19:23:57.836Z,76.60
2023-05-10T19:26:25.263Z,76.70
2023-05-10T19:28:52.757Z,76.70
2023-05-10T19:31:20.764Z,76.70
2023-05-10T19:33:47.979Z,76.20
2023-05-10T19:36:15.364Z,76.60
2023-05-10T19:38:42.581Z,77.00
2023-05-10T19:41:09.698Z,76.60
2023-05-10T19:43:38.121Z,77.00
2023-05-10T19:46:05.410Z,77.40
2023-05-10T19:48:32.585Z,77.80
2023-05-10T19:51:01.109Z,78.20
2023-05-10T19:53:28.343Z,78.70
2023-05-10T19:55:56.203Z,78.90
2023-05-10T19:58:23.940Z,78.60
2023-05-10T20:00:51.042Z,78.10
2023-05-10T20:03:18.316Z,77.70
2023-05-10T20:05:45.452Z,77.40
2023-05-10T20:08:12.758Z,77.70
2023-05-10T20:10:40.036Z,77.70
2023-05-10T20:13:07.353Z,77.00
2023-05-10T20:15:35.492Z,77.30
2023-05-10T20:18:03.911Z,77.80
2023-05-10T20:20:31.345Z,77.50
2023-05-10T20:22:58.560Z,76.70
2023-05-10T20:25:25.793Z,76.40
2023-05-10T20:27:53.096Z,76.30
2023-05-10T20:30:20.554Z,75.90
2023-05-10T20:32:48.051Z,75.50
2023-05-10T20:35:15.577Z,74.70
2023-05-10T20:37:42.601Z,74.60
2023-05-10T20:40:10.139Z,74.40
2023-05-10T20:42:37.359Z,74.00
2023-05-10T20:45:04.833Z,73.50
2023-05-10T20:47:32.766Z,72.80
2023-05-10T20:50:01.199Z,72.50
2023-05-10T20:52:29.037Z,72.00
2023-05-10T20:54:56.354Z,71.70
2023-05-10T20:57:26.518Z,71.50
2023-05-10T21:00:02.849Z,71.30
2023-05-10T21:02:29.986Z,70.80
2023-05-10T21:04:59.781Z,70.70
2023-05-10T21:07:27.075Z,70.80
2023-05-10T21:09:54.308Z,70.90
2023-05-10T21:12:21.498Z,71.10
2023-05-10T21:14:48.786Z,71.40
2023-05-10T21:17:18.042Z,72.10
2023-05-10T21:19:46.423Z,72.40
2023-05-10T21:22:14.010Z,72.90
2023-05-10T21:24:41.148Z,73.10
2023-05-10T21:27:16.517Z,73.50
2023-05-10T21:29:45.092Z,73.50
2023-05-10T21:32:12.314Z,73.90
2023-05-10T21:34:39.463Z,74.80
2023-05-10T21:37:09.666Z,75.50
2023-05-10T21:39:37.255Z,75.70
2023-05-10T21:42:04.797Z,76.40
2023-05-10T21:44:32.269Z,75.80
2023-05-10T21:46:59.338Z,76.00
2023-05-10T21:49:26.657Z,76.20
2023-05-10T21:51:53.770Z,76.10
2023-05-10T21:54:20.875Z,76.00
2023-05-10T21:56:47.978Z,75.70
2023-05-10T21:59:15.328Z,74.80
2023-05-10T22:01:44.102Z,74.10
2023-05-10T22:04:12.460Z,74.00
2023-05-10T22:06:39.667Z,73.50
2023-05-10T22:09:10.385Z,72.50
2023-05-10T22:11:41.253Z,72.40
2023-05-10T22:14:08.576Z,73.10
2023-05-10T22:16:36.029Z,73.40
2023-05-10T22:19:03.131Z,73.90
2023-05-10T22:21:30.896Z,74.30
2023-05-10T22:23:58.002Z,74.60
2023-05-10T22:26:26.343Z,74.80
2023-05-10T22:28:53.490Z,74.60
2023-05-10T22:31:20.904Z,74.40
2023-05-10T22:33:48.206Z,73.90
2023-05-10T22:36:16.975Z,73.80
2023-05-10T22:38:44.216Z,73.80
2023-05-10T22:41:11.567Z,73.80
2023-05-10T22:43:40.062Z,73.90
2023-05-10T22:46:07.307Z,74.00
2023-05-10T22:48:35.108Z,74.10
2023-05-10T22:51:02.367Z,74.10
2023-05-10T22:53:29.585Z,74.30
2023-05-10T22:55:56.855Z,74.70
2023-05-10T22:58:24.279Z,75.10
2023-05-10T23:00:52.503Z,75.20
2023-05-10T23:03:19.564Z,75.10
2023-05-10T23:05:46.806Z,75.20
2023-05-10T23:08:14.839Z,75.20
2023-05-10T23:10:42.388Z,75.10
2023-05-10T23:13:09.531Z,74.80
2023-05-10T23:15:38.485Z,73.80
2023-05-10T23:18:06.113Z,73.40
2023-05-10T23:20:33.331Z,73.60
2023-05-10T23:23:00.715Z,74.00
2023-05-10T23:25:27.903Z,74.40
2023-05-10T23:27:55.399Z,74.50
2023-05-10T23:30:22.758Z,74.70
2023-05-10T23:32:50.237Z,74.50
2023-05-10T23:35:17.649Z,74.60
2023-05-10T23:37:45.088Z,74.40
2023-05-10T23:40:13.696Z,73.80
2023-05-10T23:42:41.200Z,73.90
2023-05-10T23:45:08.839Z,73.90
2023-05-10T23:47:35.958Z,73.40
2023-05-10T23:50:03.890Z,73.40
2023-05-10T23:52:31.278Z,73.60
2023-05-10T23:54:58.437Z,73.70
2023-05-10T23:57:25.494Z,73.70
2023-05-10T23:59:52.625Z,74.00
